Airport View

Enter AWOS ICAO identifier for current METAR.

ex. KFNL

KPSO 202055Z AUTO 22007KT 10SM BKN090 BKN110 20/M08 A3013 RMK AO2 T02041080

20 May 2018 21:00

Frequency: 127.175

Phone: 970-731-0365

Other Area AWOS: KCPW - KDRO - KRCV - KTEX

TAF AMD KALS 201913Z 2019/2118 19010G20KT P6SM VCTS SCT090CB BKN200 TEMPO 2019/2022 VRB20G40KT -TSRA BKN090CB FM210000 22014KT P6SM SCT090 BKN140 FM210200 15009KT P6SM SCT090 BKN200 FM210400 VRB04KT P6SM SCT200